Time;durP1;ratioP1;P1;durP2;ratioP2;P2;SDS_P1;SDS_P2;PMS_P1;PMS_P2;Temp;Humidity;BMP_temperature;BMP_pressure;BME280_temperature;BME280_humidity;BME280_pressure;Samples;Min_cycle;Max_cycle;Signal;HPM_P1;HPM_P2
2022/04/05 00:01:40;;;;;;;5.30;4.73;;;6.60;96.20;;;;;;4974919;28;20650;-67
2022/04/05 00:04:06;;;;;;;9.00;4.50;;;6.60;96.40;;;;;;4974173;28;20283;-66
2022/04/05 00:06:32;;;;;;;7.67;4.13;;;6.60;96.20;;;;;;4974909;28;20204;-65
2022/04/05 00:08:57;;;;;;;4.00;3.63;;;6.60;96.40;;;;;;4974880;28;20178;-65
2022/04/05 00:11:23;;;;;;;5.10;3.60;;;6.60;96.50;;;;;;4974258;28;20574;-64
2022/04/05 00:13:49;;;;;;;3.80;3.17;;;6.60;96.40;;;;;;4974314;28;20206;-66
2022/04/05 00:16:14;;;;;;;5.07;4.67;;;6.60;96.40;;;;;;4974805;28;20558;-65
2022/04/05 00:18:40;;;;;;;3.67;3.37;;;6.70;96.10;;;;;;4974576;28;20170;-65
2022/04/05 00:21:07;;;;;;;4.63;3.43;;;6.70;96.30;;;;;;4974747;28;20177;-63
2022/04/05 00:23:32;;;;;;;4.35;3.70;;;6.70;96.10;;;;;;4974441;28;20451;-65
2022/04/05 00:25:58;;;;;;;4.60;4.07;;;6.70;96.30;;;;;;4974151;28;20702;-66
2022/04/05 00:28:24;;;;;;;3.70;3.40;;;6.60;96.10;;;;;;4974784;28;20205;-66
2022/04/05 00:30:49;;;;;;;11.00;3.67;;;6.60;96.10;;;;;;4973967;28;21849;-66
2022/04/05 00:33:15;;;;;;;8.53;4.17;;;6.60;96.40;;;;;;4974257;28;20287;-66
2022/04/05 00:35:41;;;;;;;3.80;3.37;;;6.60;96.70;;;;;;4974195;28;20215;-64
2022/04/05 00:38:08;;;;;;;4.70;4.30;;;6.60;96.90;;;;;;4974568;28;20188;-63
2022/04/05 00:40:35;;;;;;;4.25;3.63;;;6.60;97.00;;;;;;4974085;28;20188;-63
2022/04/05 00:43:03;;;;;;;4.00;3.70;;;6.70;97.00;;;;;;4974499;28;20227;-65
2022/04/05 00:45:29;;;;;;;4.03;3.55;;;6.70;96.90;;;;;;4974274;28;20295;-66
2022/04/05 00:47:55;;;;;;;4.00;3.53;;;6.70;97.00;;;;;;4974595;28;20247;-64
2022/04/05 00:50:22;;;;;;;4.40;3.80;;;6.70;96.90;;;;;;4974157;28;20189;-65
2022/04/05 00:52:49;;;;;;;5.25;3.95;;;6.70;96.90;;;;;;4974207;28;20416;-64
2022/04/05 00:55:20;;;;;;;3.05;2.85;;;6.70;97.00;;;;;;4973876;28;20200;-66
2022/04/05 00:57:48;;;;;;;3.83;3.53;;;6.70;97.00;;;;;;4974215;28;20537;-65
2022/04/05 01:00:14;;;;;;;3.42;3.13;;;6.70;97.10;;;;;;4973942;28;20215;-64
2022/04/05 01:02:40;;;;;;;4.70;4.30;;;6.70;97.40;;;;;;4974169;28;20669;-62
2022/04/05 01:05:07;;;;;;;6.83;3.57;;;6.70;97.00;;;;;;4973805;28;20218;-64
2022/04/05 01:07:34;;;;;;;4.00;3.65;;;6.70;97.30;;;;;;4974186;28;20424;-64
2022/04/05 01:10:00;;;;;;;3.85;3.22;;;6.70;97.40;;;;;;4974310;28;20161;-63
2022/04/05 01:12:26;;;;;;;3.72;3.42;;;6.70;97.40;;;;;;4973756;28;20176;-64
2022/04/05 01:14:52;;;;;;;4.10;3.70;;;6.70;97.40;;;;;;4973751;28;20199;-66
2022/04/05 01:17:19;;;;;;;5.10;3.25;;;6.70;97.10;;;;;;4974014;28;20916;-65
2022/04/05 01:19:48;;;;;;;3.42;3.13;;;6.70;97.00;;;;;;4973563;28;20180;-67
2022/04/05 01:22:14;;;;;;;4.65;4.00;;;6.70;97.20;;;;;;4974103;28;20230;-63
2022/04/05 01:24:40;;;;;;;4.13;3.73;;;6.70;97.00;;;;;;4977115;28;20555;-64
2022/04/05 01:27:06;;;;;;;4.30;4.00;;;6.70;97.00;;;;;;4977528;28;20901;-65
2022/04/05 01:29:32;;;;;;;3.30;3.00;;;6.70;97.20;;;;;;4977708;28;20174;-64
2022/04/05 01:32:01;;;;;;;4.57;4.10;;;6.80;97.70;;;;;;4977562;28;20530;-65
2022/04/05 01:34:29;;;;;;;4.45;3.90;;;6.80;98.20;;;;;;4976920;28;20259;-63
2022/04/05 01:37:00;;;;;;;4.85;3.25;;;6.70;98.70;;;;;;4977658;28;20185;-63
2022/04/05 01:39:28;;;;;;;3.33;3.03;;;6.70;98.80;;;;;;4977441;28;20183;-61
2022/04/05 01:42:03;;;;;;;5.13;4.55;;;6.70;99.40;;;;;;4977386;28;20527;-63
2022/04/05 01:44:30;;;;;;;5.43;3.90;;;6.70;99.30;;;;;;4976731;28;20191;-64
2022/04/05 01:46:56;;;;;;;4.47;3.00;;;6.70;99.60;;;;;;4977236;28;20183;-63
2022/04/05 01:49:22;;;;;;;4.82;3.53;;;6.60;99.80;;;;;;4977048;28;20177;-63
2022/04/05 01:51:49;;;;;;;3.35;3.03;;;6.60;99.90;;;;;;4977328;28;20246;-65
2022/04/05 01:54:17;;;;;;;4.63;3.97;;;6.60;99.90;;;;;;4976747;28;20200;-64
2022/04/05 01:56:52;;;;;;;4.07;2.97;;;6.60;99.90;;;;;;4975865;28;20227;-62
2022/04/05 01:59:26;;;;;;;5.40;3.40;;;6.50;99.90;;;;;;4976921;28;20185;-64
2022/04/05 02:01:52;;;;;;;5.70;3.35;;;6.50;99.90;;;;;;4977060;28;20181;-64
2022/04/05 02:04:19;;;;;;;5.63;3.78;;;6.50;99.90;;;;;;4975253;28;20203;-63
2022/04/05 02:06:45;;;;;;;4.70;3.38;;;6.40;99.90;;;;;;4977246;28;20177;-63
2022/04/05 02:09:14;;;;;;;4.22;3.50;;;6.40;99.90;;;;;;4976965;28;20200;-64
2022/04/05 02:11:41;;;;;;;3.90;3.60;;;6.50;99.90;;;;;;4975238;28;20655;-64
2022/04/05 02:14:07;;;;;;;4.63;3.75;;;6.40;99.90;;;;;;4976388;28;20280;-63
2022/04/05 02:16:32;;;;;;;5.83;4.23;;;6.50;99.90;;;;;;4976794;28;20279;-64
2022/04/05 02:18:59;;;;;;;3.57;2.93;;;6.40;99.90;;;;;;4975230;28;20458;-62
2022/04/05 02:21:24;;;;;;;6.80;4.35;;;6.40;99.90;;;;;;4976737;28;20180;-64
2022/04/05 02:23:50;;;;;;;3.03;2.73;;;6.40;99.90;;;;;;4976147;28;20172;-63
2022/04/05 02:26:16;;;;;;;4.30;3.33;;;6.40;99.90;;;;;;4976133;28;20193;-62
2022/04/05 02:28:42;;;;;;;4.80;3.58;;;6.30;99.90;;;;;;4976633;28;20181;-63
2022/04/05 02:31:08;;;;;;;3.17;2.90;;;6.30;99.90;;;;;;4976629;28;20180;-62
2022/04/05 02:33:34;;;;;;;4.53;4.13;;;6.30;99.90;;;;;;4975419;28;20416;-64
2022/04/05 02:36:00;;;;;;;6.00;4.00;;;6.20;99.90;;;;;;4975609;28;20216;-64
2022/04/05 02:38:25;;;;;;;4.70;4.23;;;6.20;99.90;;;;;;4976240;28;20174;-63
2022/04/05 02:40:52;;;;;;;4.03;3.47;;;6.10;99.90;;;;;;4976381;28;20632;-64
2022/04/05 02:43:18;;;;;;;4.47;4.13;;;6.10;99.90;;;;;;4976416;28;20187;-64
2022/04/05 02:45:43;;;;;;;4.72;3.53;;;6.10;99.90;;;;;;4976230;28;20246;-64
2022/04/05 02:48:09;;;;;;;3.77;3.47;;;6.10;99.90;;;;;;4976104;28;20203;-64
2022/04/05 02:50:35;;;;;;;5.30;3.30;;;6.10;99.90;;;;;;4976139;28;20179;-65
2022/04/05 02:53:01;;;;;;;3.47;3.25;;;6.10;99.90;;;;;;4976210;28;20196;-63
2022/04/05 02:55:27;;;;;;;7.00;5.20;;;6.10;99.90;;;;;;4976243;28;20247;-64
2022/04/05 02:57:52;;;;;;;3.60;3.00;;;6.10;99.90;;;;;;4976279;28;20185;-64
2022/04/05 03:00:19;;;;;;;2.93;2.60;;;6.10;99.90;;;;;;4976217;28;20176;-65
2022/04/05 03:02:45;;;;;;;4.50;3.70;;;6.10;99.90;;;;;;4975402;28;20192;-64
2022/04/05 03:05:13;;;;;;;3.75;3.55;;;6.00;99.90;;;;;;4975513;28;20623;-66
2022/04/05 03:07:39;;;;;;;5.47;3.42;;;6.00;99.90;;;;;;4975692;28;20211;-64
2022/04/05 03:10:07;;;;;;;6.63;4.63;;;6.00;99.90;;;;;;4975699;28;20199;-65
2022/04/05 03:12:34;;;;;;;5.00;3.78;;;6.00;99.90;;;;;;4976053;28;20176;-63
2022/04/05 03:15:00;;;;;;;5.80;4.45;;;6.00;99.90;;;;;;4975331;28;20203;-65
2022/04/05 03:17:25;;;;;;;4.47;4.10;;;6.00;99.90;;;;;;4974964;28;20188;-63
2022/04/05 03:19:51;;;;;;;7.30;4.40;;;6.00;99.90;;;;;;4975418;28;20176;-64
2022/04/05 03:22:17;;;;;;;4.75;4.25;;;5.90;99.90;;;;;;4975552;28;20188;-63
2022/04/05 03:24:43;;;;;;;4.07;3.23;;;5.90;99.90;;;;;;4974929;28;20277;-64
2022/04/05 03:27:09;;;;;;;3.45;3.20;;;5.90;99.90;;;;;;4975452;28;20185;-63
2022/04/05 03:29:35;;;;;;;4.67;3.73;;;5.80;99.90;;;;;;4975353;28;20174;-63
2022/04/05 03:32:02;;;;;;;4.93;3.70;;;5.90;99.90;;;;;;4975217;28;20749;-63
2022/04/05 03:34:28;;;;;;;4.25;3.10;;;5.80;99.90;;;;;;4974707;28;20197;-62
2022/04/05 03:36:54;;;;;;;6.43;4.13;;;5.80;99.90;;;;;;4975286;28;20184;-62
2022/04/05 03:39:20;;;;;;;6.53;5.20;;;5.80;99.90;;;;;;4975186;28;20232;-64
2022/04/05 03:41:46;;;;;;;3.73;3.20;;;5.70;99.90;;;;;;4975091;28;20754;-64
2022/04/05 03:44:12;;;;;;;5.87;4.30;;;5.70;99.90;;;;;;4974657;28;20296;-64
2022/04/05 03:46:37;;;;;;;6.32;4.20;;;5.70;99.90;;;;;;4973884;28;20444;-66
2022/04/05 03:49:04;;;;;;;3.97;3.27;;;5.70;99.90;;;;;;4975230;28;20179;-64
2022/04/05 03:51:29;;;;;;;5.60;4.20;;;5.60;99.90;;;;;;4975139;28;20540;-64
2022/04/05 03:53:56;;;;;;;5.03;4.00;;;5.60;99.90;;;;;;4974556;28;20195;-63
2022/04/05 03:56:22;;;;;;;5.53;5.03;;;5.50;99.90;;;;;;4974818;28;20555;-64
2022/04/05 03:58:49;;;;;;;6.60;4.85;;;5.50;99.90;;;;;;4975121;28;20191;-64
2022/04/05 04:01:15;;;;;;;6.00;5.03;;;5.50;99.90;;;;;;4974564;28;20211;-63
2022/04/05 04:03:40;;;;;;;4.13;3.23;;;5.50;99.90;;;;;;4974624;28;20264;-66
2022/04/05 04:06:06;;;;;;;3.50;3.27;;;5.50;99.90;;;;;;4974485;28;20954;-64
2022/04/05 04:08:32;;;;;;;3.97;3.50;;;5.50;99.90;;;;;;4974897;28;20176;-63
2022/04/05 04:10:57;;;;;;;5.07;4.30;;;5.50;99.90;;;;;;4975203;28;20172;-64
2022/04/05 04:13:23;;;;;;;4.80;4.40;;;5.50;99.90;;;;;;4974868;28;20304;-64
2022/04/05 04:15:49;;;;;;;6.90;4.60;;;5.50;99.90;;;;;;4974651;28;20718;-63
2022/04/05 04:18:15;;;;;;;21.08;5.03;;;5.50;99.90;;;;;;4974561;28;20424;-63
2022/04/05 04:20:43;;;;;;;4.37;3.97;;;5.50;99.90;;;;;;4974596;28;20194;-64
2022/04/05 04:23:10;;;;;;;7.65;4.15;;;5.50;99.90;;;;;;4974555;28;20172;-64
2022/04/05 04:25:39;;;;;;;6.95;4.50;;;5.40;99.90;;;;;;4974663;28;20212;-64
2022/04/05 04:28:05;;;;;;;8.85;4.55;;;5.40;99.90;;;;;;4976105;28;20226;-63
2022/04/05 04:30:35;;;;;;;4.78;4.25;;;5.40;99.90;;;;;;4974593;28;20207;-65
2022/04/05 04:33:02;;;;;;;5.35;4.05;;;5.40;99.90;;;;;;4976867;28;20168;-65
2022/04/05 04:35:28;;;;;;;5.57;4.78;;;5.40;99.90;;;;;;4974706;28;20610;-64
2022/04/05 04:37:54;;;;;;;6.55;4.47;;;5.40;99.90;;;;;;4974164;28;20168;-64
2022/04/05 04:40:20;;;;;;;4.50;3.77;;;5.40;99.90;;;;;;4974410;28;20175;-65
2022/04/05 04:42:46;;;;;;;6.57;5.87;;;5.40;99.90;;;;;;4973342;28;20423;-65
2022/04/05 04:45:12;;;;;;;5.03;4.53;;;5.40;99.90;;;;;;4972439;28;20305;-64
2022/04/05 04:47:39;;;;;;;4.50;4.05;;;5.50;99.90;;;;;;4973592;28;20179;-64
2022/04/05 04:50:05;;;;;;;3.67;3.38;;;5.50;99.90;;;;;;4974142;28;20173;-64
2022/04/05 04:52:31;;;;;;;4.68;4.38;;;5.50;99.90;;;;;;4973713;28;20179;-64
2022/04/05 04:54:57;;;;;;;3.93;3.43;;;5.50;99.90;;;;;;4973611;28;20219;-63
2022/04/05 04:57:23;;;;;;;5.03;4.20;;;5.60;99.90;;;;;;4974366;28;20180;-63
2022/04/05 04:59:49;;;;;;;6.22;5.20;;;5.60;99.90;;;;;;4978108;28;20381;-64
2022/04/05 05:02:15;;;;;;;4.32;3.92;;;5.50;99.90;;;;;;4978205;28;20180;-63
2022/04/05 05:04:41;;;;;;;4.30;4.00;;;5.60;99.90;;;;;;4976418;28;20217;-65
2022/04/05 05:07:07;;;;;;;3.97;3.57;;;5.50;99.90;;;;;;4984554;28;20634;-66
2022/04/05 05:09:33;;;;;;;8.13;4.37;;;5.50;99.90;;;;;;4979765;28;20547;-65
2022/04/05 05:12:00;;;;;;;3.83;3.42;;;5.50;99.90;;;;;;4976563;28;20528;-64
2022/04/05 05:14:27;;;;;;;6.47;2.75;;;5.50;99.90;;;;;;4976101;28;20172;-64
2022/04/05 05:16:56;;;;;;;4.53;3.58;;;5.50;99.90;;;;;;4975691;28;20259;-63
2022/04/05 05:19:22;;;;;;;34.35;4.47;;;5.40;99.90;;;;;;4976103;28;20176;-63
2022/04/05 05:21:48;;;;;;;5.73;3.80;;;5.50;99.90;;;;;;4988319;28;20183;-63
2022/04/05 05:24:13;;;;;;;4.80;4.13;;;5.50;99.90;;;;;;4996667;28;20460;-62
2022/04/05 05:26:39;;;;;;;5.70;5.20;;;5.50;99.90;;;;;;4986504;28;20271;-65
2022/04/05 05:29:05;;;;;;;4.87;4.37;;;5.50;99.90;;;;;;4977506;28;20175;-66
2022/04/05 05:31:31;;;;;;;3.03;2.73;;;5.50;99.90;;;;;;4981482;28;20516;-65
2022/04/05 05:33:57;;;;;;;6.00;5.40;;;5.50;99.90;;;;;;4976977;28;20875;-64
2022/04/05 05:36:22;;;;;;;4.70;4.10;;;5.50;99.90;;;;;;4977214;28;20212;-64
2022/04/05 05:38:48;;;;;;;5.17;4.70;;;5.50;99.90;;;;;;4977383;28;20633;-65
2022/04/05 05:41:14;;;;;;;4.67;3.50;;;5.50;99.90;;;;;;4991774;28;20183;-65
2022/04/05 05:43:41;;;;;;;4.83;4.43;;;5.50;99.90;;;;;;4996340;28;20692;-67
2022/04/05 05:46:06;;;;;;;5.57;4.65;;;5.50;99.90;;;;;;4981875;28;20206;-65
2022/04/05 05:48:33;;;;;;;6.77;5.17;;;5.50;99.90;;;;;;4977122;28;20217;-67
2022/04/05 05:50:59;;;;;;;4.32;3.92;;;5.50;99.90;;;;;;4989223;28;20498;-68
2022/04/05 05:53:25;;;;;;;6.75;4.40;;;5.40;99.90;;;;;;4996343;28;20527;-68
2022/04/05 05:55:51;;;;;;;3.53;3.23;;;5.40;99.90;;;;;;4985266;28;20200;-67
2022/04/05 05:58:17;;;;;;;4.47;4.03;;;5.50;99.90;;;;;;4976930;28;20439;-66
2022/04/05 06:00:43;;;;;;;6.00;5.00;;;5.50;99.90;;;;;;4980358;28;20459;-68
2022/04/05 06:03:10;;;;;;;7.07;4.87;;;5.50;99.90;;;;;;4976694;28;20171;-67
2022/04/05 06:05:36;;;;;;;6.88;4.00;;;5.50;99.90;;;;;;4976588;28;20221;-67
2022/04/05 06:08:03;;;;;;;4.97;3.63;;;5.50;99.90;;;;;;4980142;28;20187;-68
2022/04/05 06:10:29;;;;;;;6.72;4.25;;;5.50;99.90;;;;;;4991029;28;20275;-66
2022/04/05 06:12:55;;;;;;;4.80;4.30;;;5.60;99.90;;;;;;4992144;28;20590;-68
2022/04/05 06:15:22;;;;;;;6.30;4.93;;;5.50;99.90;;;;;;4982481;28;20203;-67
2022/04/05 06:17:49;;;;;;;8.15;4.78;;;5.50;99.90;;;;;;4978057;28;21756;-69
2022/04/05 06:20:16;;;;;;;4.05;3.75;;;5.50;99.90;;;;;;4980490;28;20175;-67
2022/04/05 06:23:02;;;;;;;4.00;3.30;;;5.60;99.90;;;;;;4980039;28;20202;-68
2022/04/05 06:25:30;;;;;;;4.82;3.78;;;5.50;99.90;;;;;;4995371;28;20606;-67
2022/04/05 06:27:57;;;;;;;3.05;2.80;;;5.50;99.90;;;;;;4986353;28;20194;-66
2022/04/05 06:30:23;;;;;;;4.70;4.05;;;5.60;99.90;;;;;;4974928;28;20238;-65
2022/04/05 06:32:50;;;;;;;5.40;4.90;;;5.60;99.90;;;;;;4978373;28;20200;-68
2022/04/05 06:35:16;;;;;;;6.13;4.30;;;5.60;99.90;;;;;;4975128;28;20211;-67
2022/04/05 06:37:44;;;;;;;3.93;3.53;;;5.70;99.90;;;;;;4976087;28;20177;-66
2022/04/05 06:40:11;;;;;;;6.28;5.30;;;5.70;99.90;;;;;;4985206;28;20493;-67
2022/04/05 06:42:42;;;;;;;6.80;5.15;;;5.70;99.90;;;;;;4988097;28;20172;-66
2022/04/05 06:45:14;;;;;;;4.65;4.05;;;5.80;99.90;;;;;;4975023;28;20210;-65
2022/04/05 06:47:40;;;;;;;8.18;4.80;;;5.80;99.90;;;;;;4975703;28;20223;-66
2022/04/05 06:50:08;;;;;;;4.77;4.37;;;5.90;99.90;;;;;;4975344;28;20204;-65
2022/04/05 06:52:37;;;;;;;8.50;4.85;;;5.90;99.90;;;;;;4975654;28;20985;-64
2022/04/05 06:55:03;;;;;;;5.22;4.47;;;5.90;99.90;;;;;;4975308;28;20657;-64
2022/04/05 06:57:29;;;;;;;3.85;3.55;;;5.90;99.90;;;;;;4975627;28;20246;-63
2022/04/05 06:59:55;;;;;;;8.93;4.87;;;6.00;99.90;;;;;;4975608;28;20265;-67
2022/04/05 07:02:20;;;;;;;3.87;3.57;;;6.10;99.90;;;;;;4975465;28;20427;-63
2022/04/05 07:04:46;;;;;;;5.70;3.87;;;6.10;99.90;;;;;;4975165;28;20204;-64
2022/04/05 07:07:12;;;;;;;4.73;4.30;;;6.10;99.90;;;;;;4975181;28;20722;-66
2022/04/05 07:09:37;;;;;;;5.03;3.77;;;6.20;99.90;;;;;;4975580;28;20221;-62
2022/04/05 07:12:03;;;;;;;4.27;3.87;;;6.30;99.90;;;;;;4975159;28;20795;-64
2022/04/05 07:14:29;;;;;;;5.60;4.20;;;6.30;99.90;;;;;;4974515;28;20180;-64
2022/04/05 07:16:54;;;;;;;4.20;3.90;;;6.30;99.90;;;;;;4974903;28;20551;-65
2022/04/05 07:19:20;;;;;;;4.17;3.60;;;6.40;99.90;;;;;;4975342;28;20168;-64
2022/04/05 07:21:46;;;;;;;5.80;4.47;;;6.40;99.90;;;;;;4974699;28;20215;-63
2022/04/05 07:24:11;;;;;;;10.00;4.17;;;6.40;99.90;;;;;;4974906;28;20202;-63
2022/04/05 07:26:37;;;;;;;3.53;3.23;;;6.40;99.90;;;;;;4975484;28;20220;-66
2022/04/05 07:29:03;;;;;;;3.33;3.10;;;6.40;99.90;;;;;;4975132;28;20173;-66
2022/04/05 07:31:28;;;;;;;3.50;3.20;;;6.40;99.90;;;;;;4975049;28;20196;-62
2022/04/05 07:33:54;;;;;;;5.00;4.47;;;6.50;99.90;;;;;;4974288;28;20187;-65
2022/04/05 07:36:20;;;;;;;4.37;3.47;;;6.50;99.90;;;;;;4974597;28;20290;-65
2022/04/05 07:38:45;;;;;;;5.60;3.57;;;6.60;99.90;;;;;;4986694;28;20264;-65
2022/04/05 07:41:11;;;;;;;2.60;2.40;;;6.70;99.90;;;;;;4994217;28;20640;-64
2022/04/05 07:43:36;;;;;;;4.30;3.87;;;6.70;99.90;;;;;;4979356;28;20207;-64
2022/04/05 07:46:03;;;;;;;4.27;3.83;;;6.70;99.90;;;;;;4974513;28;20212;-65
2022/04/05 07:48:30;;;;;;;4.00;3.65;;;6.80;99.90;;;;;;4974509;28;20188;-64
2022/04/05 07:50:57;;;;;;;3.92;3.63;;;6.90;99.90;;;;;;4974551;28;20183;-64
2022/04/05 07:53:23;;;;;;;4.75;3.10;;;6.90;99.90;;;;;;4973934;28;20194;-66
2022/04/05 07:55:48;;;;;;;5.65;3.67;;;7.00;99.90;;;;;;4974150;28;20204;-65
2022/04/05 07:58:14;;;;;;;3.57;2.70;;;7.00;99.90;;;;;;4974231;28;20181;-65
2022/04/05 08:00:40;;;;;;;3.47;2.80;;;7.00;99.90;;;;;;4974490;28;20497;-64
2022/04/05 08:03:06;;;;;;;5.13;4.70;;;7.00;99.90;;;;;;4974142;28;20182;-62
2022/04/05 08:05:31;;;;;;;6.10;4.40;;;7.00;99.90;;;;;;4971477;28;20206;-66
2022/04/05 08:07:57;;;;;;;3.20;2.90;;;7.00;99.90;;;;;;4972970;28;20171;-67
2022/04/05 08:10:23;;;;;;;6.17;4.23;;;7.10;99.90;;;;;;4974413;28;20179;-67
2022/04/05 08:12:50;;;;;;;4.88;4.32;;;7.20;99.90;;;;;;4973949;28;20260;-69
2022/04/05 08:15:24;;;;;;;4.28;3.97;;;7.30;99.90;;;;;;4973503;28;20203;-67
2022/04/05 08:17:50;;;;;;;4.88;3.63;;;7.30;99.90;;;;;;4973488;28;20233;-67
2022/04/05 08:20:16;;;;;;;4.15;3.63;;;7.40;99.90;;;;;;4973707;28;20265;-67
2022/04/05 08:22:42;;;;;;;4.25;3.38;;;7.50;99.90;;;;;;4973811;28;20315;-62
2022/04/05 08:25:10;;;;;;;4.63;3.22;;;7.50;99.90;;;;;;4973707;28;20218;-64
2022/04/05 08:27:36;;;;;;;5.30;3.35;;;7.60;99.90;;;;;;4973841;28;20186;-63
2022/04/05 08:30:03;;;;;;;3.35;3.05;;;7.70;99.90;;;;;;4974684;28;20545;-65
2022/04/05 08:32:29;;;;;;;4.97;4.32;;;7.70;99.90;;;;;;4979888;28;20566;-64
2022/04/05 08:34:55;;;;;;;5.78;4.45;;;7.80;99.90;;;;;;4979879;28;20245;-64
2022/04/05 08:37:22;;;;;;;6.20;3.60;;;7.90;99.90;;;;;;4994648;28;20202;-66
2022/04/05 08:39:48;;;;;;;3.85;3.30;;;8.00;99.90;;;;;;4999759;28;20177;-66
2022/04/05 08:42:14;;;;;;;3.08;2.83;;;8.10;99.90;;;;;;4997132;28;20175;-65
2022/04/05 08:44:43;;;;;;;2.80;2.60;;;8.20;99.90;;;;;;4979789;28;20285;-63
2022/04/05 08:47:11;;;;;;;4.55;3.50;;;8.20;99.90;;;;;;4979660;28;20168;-65
2022/04/05 08:49:38;;;;;;;3.88;3.58;;;8.20;99.90;;;;;;4995368;28;20174;-65
2022/04/05 08:52:03;;;;;;;3.97;3.45;;;8.20;99.90;;;;;;4981576;28;20582;-62
2022/04/05 08:54:29;;;;;;;3.87;3.43;;;8.30;99.90;;;;;;4979840;28;20176;-65
2022/04/05 08:56:55;;;;;;;2.70;2.50;;;8.30;99.90;;;;;;4979774;28;20971;-66
2022/04/05 08:59:20;;;;;;;4.50;3.70;;;8.40;99.90;;;;;;4979813;28;20179;-66
2022/04/05 09:01:46;;;;;;;6.60;3.77;;;8.50;99.90;;;;;;4980318;28;20172;-66
2022/04/05 09:04:12;;;;;;;4.30;3.30;;;8.50;99.90;;;;;;4979508;28;20566;-64
2022/04/05 09:06:38;;;;;;;2.40;2.20;;;8.70;99.90;;;;;;4980015;28;20238;-64
2022/04/05 09:09:10;;;;;;;3.50;3.20;;;8.60;99.90;;;;;;4979995;28;20187;-66
2022/04/05 09:11:41;;;;;;;3.58;3.03;;;8.70;99.90;;;;;;4979680;28;20524;-66
2022/04/05 09:14:07;;;;;;;4.03;3.22;;;8.70;99.90;;;;;;4979211;28;20168;-68
2022/04/05 09:16:34;;;;;;;6.20;3.10;;;8.70;99.90;;;;;;4973524;28;20225;-63
2022/04/05 09:19:08;;;;;;;4.20;3.00;;;8.90;99.90;;;;;;4979288;28;20203;-68
2022/04/05 09:21:57;;;;;;;6.20;4.05;;;8.90;99.90;;;;;;4979961;28;20618;-68
2022/04/05 09:24:36;;;;;;;5.13;2.40;;;9.10;99.90;;;;;;4978816;28;20346;-68
2022/04/05 09:27:02;;;;;;;4.93;3.10;;;9.10;99.90;;;;;;4979568;28;20266;-69
2022/04/05 09:29:42;;;;;;;3.33;2.40;;;9.20;99.90;;;;;;4978378;28;20168;-69
2022/04/05 09:32:08;;;;;;;3.30;2.60;;;9.30;99.90;;;;;;4979683;28;20179;-66
2022/04/05 09:34:48;;;;;;;3.03;2.80;;;9.40;99.90;;;;;;4984950;28;20187;-69
2022/04/05 09:37:14;;;;;;;3.70;3.40;;;9.40;99.90;;;;;;4980125;28;20262;-69
2022/04/05 09:39:41;;;;;;;4.67;3.37;;;9.40;99.90;;;;;;4981493;28;20255;-71
2022/04/05 09:42:08;;;;;;;5.60;3.70;;;9.40;99.90;;;;;;4984414;28;20494;-70
2022/04/05 09:44:40;;;;;;;5.85;2.45;;;9.40;99.90;;;;;;4979305;28;20191;-69
2022/04/05 09:47:14;;;;;;;3.05;2.85;;;9.40;99.90;;;;;;4987618;28;20175;-69
2022/04/05 09:49:44;;;;;;;2.30;2.15;;;9.40;99.90;;;;;;4976761;28;20746;-69
2022/04/05 09:52:32;;;;;;;4.30;3.33;;;9.50;99.90;;;;;;4977034;28;20254;-69
2022/04/05 09:55:15;;;;;;;4.03;2.58;;;9.40;99.90;;;;;;4976247;28;20705;-69
2022/04/05 09:57:42;;;;;;;3.15;2.85;;;9.50;99.90;;;;;;4976942;28;20176;-67
2022/04/05 10:00:16;;;;;;;3.45;3.10;;;9.50;99.90;;;;;;4982547;28;20179;-65
2022/04/05 10:03:02;;;;;;;5.45;2.72;;;9.50;99.90;;;;;;4996035;28;20182;-66
2022/04/05 10:05:33;;;;;;;2.90;2.53;;;9.60;99.90;;;;;;4970236;28;20223;-67
2022/04/05 10:07:59;;;;;;;3.17;2.97;;;9.60;99.90;;;;;;4978397;28;20583;-66
2022/04/05 10:10:25;;;;;;;2.35;2.15;;;9.60;99.90;;;;;;4976548;28;20763;-67
2022/04/05 10:12:51;;;;;;;2.40;2.30;;;9.70;99.90;;;;;;4993305;28;20270;-68
2022/04/05 10:15:18;;;;;;;5.15;3.30;;;9.80;99.90;;;;;;4982079;28;20442;-69
2022/04/05 10:17:45;;;;;;;3.45;3.17;;;10.00;99.90;;;;;;4984153;28;20175;-67
2022/04/05 10:20:12;;;;;;;2.95;2.75;;;10.10;99.90;;;;;;4976319;28;20259;-68
2022/04/05 10:22:40;;;;;;;5.63;3.33;;;10.20;99.90;;;;;;4992333;28;20179;-68
2022/04/05 10:25:07;;;;;;;3.17;2.85;;;10.30;99.90;;;;;;4989344;28;20739;-68
2022/04/05 10:27:32;;;;;;;2.88;2.67;;;10.20;99.90;;;;;;4974270;28;20195;-69
2022/04/05 10:30:27;;;;;;;2.87;2.67;;;10.40;99.90;;;;;;4980017;28;20181;-68
2022/04/05 10:33:23;;;;;;;3.80;3.50;;;10.50;99.90;;;;;;4995035;28;20541;-66
2022/04/05 10:36:00;;;;;;;6.45;2.95;;;10.50;99.90;;;;;;4953941;28;20306;-67
2022/04/05 10:38:27;;;;;;;3.20;2.97;;;10.60;99.90;;;;;;4977408;28;20192;-66
2022/04/05 10:41:12;;;;;;;5.07;2.78;;;10.70;99.90;;;;;;4974578;28;20563;-65
2022/04/05 10:43:41;;;;;;;3.88;2.90;;;10.70;99.90;;;;;;4971960;28;20204;-65
2022/04/05 10:46:08;;;;;;;2.85;2.58;;;10.80;99.90;;;;;;4973599;28;20204;-65
2022/04/05 10:48:34;;;;;;;4.30;2.60;;;10.70;99.90;;;;;;4980815;28;20739;-70
2022/04/05 10:50:59;;;;;;;5.53;3.08;;;10.60;99.90;;;;;;4970529;28;20191;-68
2022/04/05 10:53:37;;;;;;;3.43;2.50;;;10.60;99.90;;;;;;4972556;28;20171;-66
2022/04/05 10:56:14;;;;;;;4.25;3.05;;;10.50;99.90;;;;;;4973414;28;20227;-69
2022/04/05 10:58:52;;;;;;;6.40;3.70;;;10.50;99.90;;;;;;4978713;28;20183;-68
2022/04/05 11:01:25;;;;;;;7.55;6.60;;;10.40;99.90;;;;;;4971392;28;20180;-67
2022/04/05 11:04:09;;;;;;;10.35;5.10;;;10.40;99.90;;;;;;4973737;28;20637;-66
2022/04/05 11:07:01;;;;;;;9.57;7.20;;;10.30;99.90;;;;;;4980579;28;20562;-66
2022/04/05 11:09:30;;;;;;;14.27;8.07;;;10.30;99.90;;;;;;4977291;28;20192;-68
2022/04/05 11:11:56;;;;;;;8.52;4.90;;;10.20;99.90;;;;;;4974923;28;20639;-68
2022/04/05 11:14:41;;;;;;;10.50;3.88;;;10.20;99.90;;;;;;4974026;28;20183;-69
2022/04/05 11:17:09;;;;;;;2.72;2.47;;;10.30;99.90;;;;;;4975581;28;20164;-68
2022/04/05 11:19:37;;;;;;;3.20;2.90;;;10.40;99.90;;;;;;4977690;28;20176;-67
2022/04/05 11:22:05;;;;;;;4.47;3.30;;;10.40;99.90;;;;;;4979884;28;20246;-66
2022/04/05 11:25:13;;;;;;;3.55;3.25;;;10.50;99.90;;;;;;4984222;28;20231;-68
2022/04/05 11:27:49;;;;;;;3.45;2.38;;;10.50;99.90;;;;;;4954836;28;20183;-69
2022/04/05 11:30:21;;;;;;;3.10;2.80;;;10.60;99.90;;;;;;4976540;28;20186;-66
2022/04/05 11:33:33;;;;;;;3.03;2.83;;;10.70;99.90;;;;;;4967164;28;20176;-70
2022/04/05 11:36:00;;;;;;;3.33;3.08;;;10.80;99.90;;;;;;4945514;28;20653;-69
2022/04/05 11:38:26;;;;;;;3.22;2.50;;;10.90;99.90;;;;;;4975470;28;20168;-69
2022/04/05 11:41:05;;;;;;;2.20;1.60;;;11.00;99.90;;;;;;4973308;28;20181;-70
2022/04/05 11:43:32;;;;;;;2.60;2.40;;;11.10;99.90;;;;;;4973378;28;20172;-69
2022/04/05 11:46:09;;;;;;;3.17;2.80;;;11.20;99.90;;;;;;4974217;28;20723;-68
2022/04/05 11:48:39;;;;;;;4.73;2.93;;;11.40;99.90;;;;;;4973989;28;20326;-67
2022/04/05 11:51:07;;;;;;;2.67;2.47;;;11.50;99.90;;;;;;4974788;28;20423;-66
2022/04/05 11:53:33;;;;;;;4.70;3.07;;;11.60;99.90;;;;;;4973883;28;20415;-66
2022/04/05 11:56:04;;;;;;;3.20;2.80;;;11.70;99.90;;;;;;4973777;28;20471;-68
2022/04/05 11:58:30;;;;;;;2.87;2.57;;;11.70;99.90;;;;;;4974872;28;20420;-69
2022/04/05 12:01:00;;;;;;;3.40;2.80;;;11.80;99.90;;;;;;4974372;28;20972;-69
2022/04/05 12:03:26;;;;;;;6.97;2.90;;;12.00;99.90;;;;;;4974254;28;20431;-70
2022/04/05 12:05:52;;;;;;;3.40;3.00;;;12.00;99.90;;;;;;4974921;28;20505;-66
2022/04/05 12:08:18;;;;;;;2.60;2.40;;;11.90;99.90;;;;;;4974155;28;20180;-64
2022/04/05 12:10:44;;;;;;;2.40;2.20;;;11.90;99.90;;;;;;4974785;28;20433;-68
2022/04/05 12:13:11;;;;;;;3.20;2.83;;;11.90;99.90;;;;;;4979073;28;20427;-66
2022/04/05 12:15:37;;;;;;;3.13;2.80;;;12.00;99.90;;;;;;4973970;28;20824;-65
2022/04/05 12:18:19;;;;;;;2.67;2.13;;;12.00;99.90;;;;;;4974922;28;20417;-66
2022/04/05 12:20:57;;;;;;;3.23;2.50;;;12.00;99.90;;;;;;4974173;28;20783;-65
2022/04/05 12:23:29;;;;;;;2.37;2.10;;;12.00;99.90;;;;;;4972141;28;20923;-66
2022/04/05 12:26:15;;;;;;;3.33;2.67;;;12.10;99.90;;;;;;4973490;28;20465;-67
2022/04/05 12:28:43;;;;;;;4.43;2.20;;;12.10;99.90;;;;;;4973687;28;20428;-65
2022/04/05 12:31:10;;;;;;;2.80;2.30;;;12.10;99.90;;;;;;4973604;28;20482;-70
2022/04/05 12:33:38;;;;;;;2.90;2.60;;;12.00;99.90;;;;;;4986313;28;20451;-70
2022/04/05 12:36:05;;;;;;;3.57;2.57;;;11.90;99.90;;;;;;4979226;28;20546;-67
2022/04/05 12:38:31;;;;;;;4.77;2.83;;;12.00;99.90;;;;;;4984588;28;20432;-68
2022/04/05 12:40:57;;;;;;;3.13;2.57;;;12.00;99.90;;;;;;4971619;28;20466;-68
2022/04/05 12:43:24;;;;;;;3.03;2.30;;;12.10;99.90;;;;;;4979948;28;20510;-67
2022/04/05 12:45:50;;;;;;;5.10;4.10;;;12.00;99.90;;;;;;4972923;28;20481;-67
2022/04/05 12:48:17;;;;;;;4.57;2.17;;;12.00;99.90;;;;;;4973682;28;20484;-66
2022/04/05 12:50:51;;;;;;;2.60;2.30;;;11.90;99.90;;;;;;4978153;28;20431;-70
2022/04/05 12:53:35;;;;;;;2.07;1.97;;;11.90;99.90;;;;;;4980903;28;20428;-68
2022/04/05 12:56:13;;;;;;;3.37;3.03;;;11.80;99.90;;;;;;4988078;28;20472;-68
2022/04/05 12:58:40;;;;;;;3.43;2.90;;;11.60;99.90;;;;;;4980197;28;20430;-67
2022/04/05 13:01:21;;;;;;;3.25;2.78;;;11.50;99.90;;;;;;4976300;28;20510;-69